Terminal Aerodrome Forecast
Issued by NWS Charleston, WV

Home | Current Version | Previous Version | Text Only | Print | Product List | Glossary On
Versions: 1 2 3 4 5 6 7 8 9 10 11 12 13 14 15 16 17 18 19 20 21 22 23 24 25
852
FTUS41 KRLX 170857 AAA
TAFHTS
TAF AMD
KHTS 170857Z 1709/1806 00000KT 6SM BR SCT200
     FM171100 VRB03KT 4SM BR FEW001 SCT150
     FM171300 VRB03KT P6SM VCSH SCT040
     FM171500 21004KT 5SM TSRA BKN035CB
     FM171700 22006KT P6SM BKN035
     FM180300 21004KT 6SM SHRA VCTS BKN045CB=

USA.gov is the U.S. government's official web portal to all federal, state and local government web resources and services.